Ribeirao Cascalheira, Brazil
Current Conditions -  °F | °C
As of 11:00 AM on Monday 26 Jan 2015 (Local Time) from SBBW Reporting Station
Rain Showers Rain Showers  
Wind Chill: 77°   Ceiling: 2000
Heat Index: 78°   Visibility: 6mi
Dew Point: 73°   Wind: 8mph
Humidity: 89%   Direction: 10°N
Pressure: 30.03"   Gusts: NA
Location:  12.94°S, 51.82°W
Report Text: SBBW 261400Z 01007KT 9999 VCSH SCT015 BKN020 BKN090 25/23 Q1017
Loading
Personal Weather Stations






























Interactive Weather Map New forecast layout! Learn more

10-Day Weather Forecast

Advertisements
Track Severe Weather on mobile